Time;durP1;ratioP1;P1;durP2;ratioP2;P2;SDS_P1;SDS_P2;PMS_P1;PMS_P2;Temp;Humidity;BMP_temperature;BMP_pressure;BME280_temperature;BME280_humidity;BME280_pressure;Samples;Min_cycle;Max_cycle;Signal;HPM_P1;HPM_P2
2021/03/17 00:00:25;;;;;;;3.33;2.45;;;;;;;;;;5072553;28;20051;-65
2021/03/17 00:02:52;;;;;;;3.10;2.67;;;;;;;;;;5072471;28;20127;-65
2021/03/17 00:05:19;;;;;;;2.50;2.30;;;;;;;;;;5071320;28;20044;-65
2021/03/17 00:07:45;;;;;;;3.60;2.95;;;;;;;;;;5072442;28;20517;-65
2021/03/17 00:10:14;;;;;;;3.45;3.00;;;;;;;;;;5072151;28;20029;-65
2021/03/17 00:12:40;;;;;;;2.78;2.47;;;;;;;;;;5072333;28;20150;-65
2021/03/17 00:15:06;;;;;;;4.90;4.28;;;;;;;;;;5082734;28;20511;-65
2021/03/17 00:17:32;;;;;;;3.60;3.30;;;;;;;;;;5075084;28;20039;-65
2021/03/17 00:19:58;;;;;;;3.50;2.67;;;;;;;;;;5071574;28;20035;-65
2021/03/17 00:22:24;;;;;;;6.53;3.35;;;;;;;;;;5074241;28;20039;-65
2021/03/17 00:24:50;;;;;;;3.53;2.90;;;;;;;;;;5092467;28;20486;-65
2021/03/17 00:27:16;;;;;;;3.53;2.90;;;;;;;;;;5091244;28;20035;-65
2021/03/17 00:29:42;;;;;;;3.63;3.00;;;;;;;;;;5091606;28;20024;-65
2021/03/17 00:32:09;;;;;;;2.97;2.78;;;;;;;;;;5092060;28;20139;-65
2021/03/17 00:34:35;;;;;;;3.92;2.65;;;;;;;;;;5092030;28;20024;-65
2021/03/17 00:37:01;;;;;;;3.15;2.20;;;;;;;;;;5092042;28;20020;-65
2021/03/17 00:39:27;;;;;;;2.97;2.67;;;;;;;;;;5091777;28;20438;-65
2021/03/17 00:41:53;;;;;;;3.72;2.40;;;;;;;;;;5092195;28;20024;-65
2021/03/17 00:44:19;;;;;;;2.75;2.55;;;;;;;;;;5091895;28;20050;-65
2021/03/17 00:46:45;;;;;;;3.08;2.28;;;;;;;;;;5091999;28;20483;-65
2021/03/17 00:49:11;;;;;;;3.67;2.80;;;;;;;;;;5090536;28;20449;-65
2021/03/17 00:51:37;;;;;;;4.97;2.70;;;;;;;;;;5077841;28;20032;-65
2021/03/17 00:54:04;;;;;;;3.38;2.70;;;;;;;;;;5090213;28;20020;-65
2021/03/17 00:56:30;;;;;;;3.13;2.47;;;;;;;;;;5091249;28;20427;-65
2021/03/17 00:58:56;;;;;;;3.03;2.33;;;;;;;;;;5083471;28;20063;-65
2021/03/17 01:01:22;;;;;;;3.42;2.55;;;;;;;;;;5071118;28;20028;-65
2021/03/17 01:03:48;;;;;;;2.53;2.33;;;;;;;;;;5071867;28;20158;-65
2021/03/17 01:06:14;;;;;;;3.53;2.65;;;;;;;;;;5070793;28;20032;-65
2021/03/17 01:08:41;;;;;;;4.63;2.50;;;;;;;;;;5071632;28;20024;-65
2021/03/17 01:11:08;;;;;;;3.60;2.38;;;;;;;;;;5070961;28;20101;-65
2021/03/17 01:13:34;;;;;;;3.28;2.83;;;;;;;;;;5071418;28;20025;-65
2021/03/17 01:16:00;;;;;;;2.60;2.33;;;;;;;;;;5070776;28;20040;-65
2021/03/17 01:18:26;;;;;;;2.53;2.33;;;;;;;;;;5071154;28;20025;-65
2021/03/17 01:20:52;;;;;;;4.15;3.20;;;;;;;;;;5071206;28;20032;-65
2021/03/17 01:23:18;;;;;;;4.07;3.72;;;;;;;;;;5064134;28;20075;-65
2021/03/17 01:25:46;;;;;;;2.78;2.58;;;;;;;;;;5070824;28;20021;-65
2021/03/17 01:28:13;;;;;;;2.67;2.47;;;;;;;;;;5070051;28;20028;-65
2021/03/17 01:30:40;;;;;;;3.70;3.42;;;;;;;;;;5071301;28;20035;-65
2021/03/17 01:33:07;;;;;;;3.20;2.38;;;;;;;;;;5070966;28;20104;-65
2021/03/17 01:35:33;;;;;;;3.13;2.78;;;;;;;;;;5071286;28;20513;-65
2021/03/17 01:37:59;;;;;;;2.40;2.20;;;;;;;;;;5080190;28;20032;-65
2021/03/17 01:40:26;;;;;;;2.85;2.63;;;;;;;;;;5090695;28;20048;-65
2021/03/17 01:42:53;;;;;;;5.95;2.97;;;;;;;;;;5091159;28;20032;-65
2021/03/17 01:45:19;;;;;;;2.92;2.70;;;;;;;;;;5090627;28;20035;-65
2021/03/17 01:47:47;;;;;;;4.15;2.65;;;;;;;;;;5091270;28;20028;-65
2021/03/17 01:50:19;;;;;;;3.00;2.50;;;;;;;;;;5089997;28;20032;-65
2021/03/17 01:52:46;;;;;;;3.58;2.17;;;;;;;;;;5091137;28;20071;-65
2021/03/17 01:55:12;;;;;;;3.30;2.92;;;;;;;;;;5082785;28;20098;-65
2021/03/17 01:57:39;;;;;;;5.72;4.18;;;;;;;;;;5078235;27;20023;-65
2021/03/17 02:00:07;;;;;;;2.58;2.38;;;;;;;;;;5108726;28;20039;-65
2021/03/17 02:02:33;;;;;;;4.22;2.85;;;;;;;;;;5109830;28;20032;-65
2021/03/17 02:04:59;;;;;;;4.32;3.35;;;;;;;;;;5110649;28;20027;-65
2021/03/17 02:07:26;;;;;;;3.15;2.72;;;;;;;;;;5109595;28;20478;-65
2021/03/17 02:09:52;;;;;;;2.38;2.17;;;;;;;;;;5110843;28;20034;-65
2021/03/17 02:12:25;;;;;;;3.00;2.65;;;;;;;;;;5102551;28;20500;-65
2021/03/17 02:15:07;;;;;;;3.53;2.10;;;;;;;;;;5106300;28;20157;-65
2021/03/17 02:17:34;;;;;;;2.30;2.10;;;;;;;;;;5108412;28;20067;-65
2021/03/17 02:20:00;;;;;;;2.33;2.13;;;;;;;;;;5109777;28;20023;-65
2021/03/17 02:22:29;;;;;;;3.38;2.20;;;;;;;;;;5108996;28;20038;-66
2021/03/17 02:25:04;;;;;;;4.38;2.38;;;;;;;;;;5110338;28;20153;-65
2021/03/17 02:27:43;;;;;;;4.35;2.67;;;;;;;;;;5109931;28;20104;-65
2021/03/17 02:30:12;;;;;;;2.30;2.10;;;;;;;;;;5109944;28;20031;-65
2021/03/17 02:32:56;;;;;;;3.13;2.75;;;;;;;;;;5110499;28;20083;-65
2021/03/17 02:35:26;;;;;;;3.90;1.98;;;;;;;;;;5109965;28;20035;-65
2021/03/17 02:37:52;;;;;;;2.58;2.38;;;;;;;;;;5110760;28;20031;-65
2021/03/17 02:40:20;;;;;;;2.58;2.25;;;;;;;;;;5109789;28;20087;-65
2021/03/17 02:43:05;;;;;;;2.28;2.08;;;;;;;;;;5110223;28;20036;-65
2021/03/17 02:45:32;;;;;;;3.47;2.75;;;;;;;;;;5100654;28;20051;-66
2021/03/17 02:48:04;;;;;;;5.40;2.10;;;;;;;;;;5109352;28;20028;-66
2021/03/17 02:50:32;;;;;;;3.03;2.42;;;;;;;;;;5109293;28;20024;-66
2021/03/17 02:52:58;;;;;;;2.85;2.40;;;;;;;;;;5110011;28;20046;-66
2021/03/17 02:55:26;;;;;;;2.13;1.92;;;;;;;;;;5108817;28;20024;-66
2021/03/17 02:57:54;;;;;;;2.90;2.58;;;;;;;;;;5113064;27;20031;-66
2021/03/17 03:00:20;;;;;;;2.25;2.05;;;;;;;;;;5129661;27;20035;-66
2021/03/17 03:02:48;;;;;;;2.15;1.95;;;;;;;;;;5129533;28;20231;-66
2021/03/17 03:05:16;;;;;;;2.35;2.00;;;;;;;;;;5129933;28;20034;-66
2021/03/17 03:07:45;;;;;;;3.13;2.20;;;;;;;;;;5130326;27;20136;-66
2021/03/17 03:10:12;;;;;;;2.70;2.30;;;;;;;;;;5129871;27;20541;-65
2021/03/17 03:12:38;;;;;;;7.07;2.50;;;;;;;;;;5130895;28;20030;-66
2021/03/17 03:15:05;;;;;;;3.72;2.90;;;;;;;;;;5130182;28;20027;-65
2021/03/17 03:17:33;;;;;;;3.38;2.20;;;;;;;;;;5124215;27;20035;-66
2021/03/17 03:20:00;;;;;;;3.72;2.55;;;;;;;;;;5128374;27;20485;-65
2021/03/17 03:22:26;;;;;;;3.28;3.00;;;;;;;;;;5130174;27;20039;-66
2021/03/17 03:24:54;;;;;;;4.43;3.05;;;;;;;;;;5130528;28;20094;-66
2021/03/17 03:27:20;;;;;;;3.47;3.08;;;;;;;;;;5128915;27;20137;-66
2021/03/17 03:29:47;;;;;;;2.20;2.05;;;;;;;;;;5130114;28;20026;-66
2021/03/17 03:32:13;;;;;;;3.17;2.45;;;;;;;;;;5129213;28;20475;-66
2021/03/17 03:34:39;;;;;;;3.55;2.47;;;;;;;;;;5130627;28;20027;-66
2021/03/17 03:37:06;;;;;;;4.10;2.35;;;;;;;;;;5127836;28;20027;-65
2021/03/17 03:39:33;;;;;;;2.83;2.53;;;;;;;;;;5110464;28;20032;-66
2021/03/17 03:42:00;;;;;;;2.38;2.15;;;;;;;;;;5113165;28;20035;-66
2021/03/17 03:44:26;;;;;;;2.28;2.00;;;;;;;;;;5113696;28;20038;-66
2021/03/17 03:46:52;;;;;;;2.92;2.67;;;;;;;;;;5113667;28;20027;-66
2021/03/17 03:49:18;;;;;;;3.17;2.88;;;;;;;;;;5112558;28;20023;-65
2021/03/17 03:51:56;;;;;;;2.88;2.67;;;;;;;;;;5113211;28;20024;-66
2021/03/17 03:54:28;;;;;;;1.95;1.85;;;;;;;;;;5113208;28;20571;-65
2021/03/17 03:57:08;;;;;;;2.10;1.90;;;;;;;;;;5113403;28;20027;-66
2021/03/17 03:59:38;;;;;;;2.78;2.13;;;;;;;;;;5112457;28;20048;-65
2021/03/17 04:02:06;;;;;;;2.58;2.38;;;;;;;;;;5112462;28;20107;-65
2021/03/17 04:04:36;;;;;;;3.15;2.67;;;;;;;;;;5112801;28;20031;-66
2021/03/17 04:07:03;;;;;;;2.15;2.00;;;;;;;;;;5112916;28;20028;-65
2021/03/17 04:09:39;;;;;;;2.45;1.95;;;;;;;;;;5112945;28;20033;-66
2021/03/17 04:12:06;;;;;;;2.33;2.13;;;;;;;;;;5112448;28;20031;-65
2021/03/17 04:14:33;;;;;;;3.50;3.20;;;;;;;;;;5119846;27;20019;-66
2021/03/17 04:17:15;;;;;;;2.30;2.10;;;;;;;;;;5133089;27;20119;-65
2021/03/17 04:19:42;;;;;;;3.85;2.00;;;;;;;;;;5133615;27;20045;-66
2021/03/17 04:22:09;;;;;;;2.97;2.50;;;;;;;;;;5132467;27;20211;-66
2021/03/17 04:24:35;;;;;;;2.03;1.92;;;;;;;;;;5133744;27;20034;-66
2021/03/17 04:27:02;;;;;;;2.38;2.13;;;;;;;;;;5133618;27;20027;-65
2021/03/17 04:29:30;;;;;;;3.65;3.22;;;;;;;;;;5133109;27;20022;-66
2021/03/17 04:31:57;;;;;;;2.97;2.63;;;;;;;;;;5132904;27;20026;-66
2021/03/17 04:34:24;;;;;;;5.15;2.70;;;;;;;;;;5132412;27;20023;-66
2021/03/17 04:36:50;;;;;;;2.55;2.13;;;;;;;;;;5133587;27;20462;-66
2021/03/17 04:39:17;;;;;;;2.10;2.00;;;;;;;;;;5132800;27;20031;-66
2021/03/17 04:41:45;;;;;;;1.95;1.83;;;;;;;;;;5132831;27;20023;-66
2021/03/17 04:44:13;;;;;;;2.08;1.95;;;;;;;;;;5132675;27;20406;-66
2021/03/17 04:46:40;;;;;;;2.63;1.55;;;;;;;;;;5133355;27;20031;-66
2021/03/17 04:49:06;;;;;;;3.17;2.63;;;;;;;;;;5132645;27;20023;-65
2021/03/17 04:51:33;;;;;;;2.50;2.30;;;;;;;;;;5131353;27;20031;-66
2021/03/17 04:53:59;;;;;;;2.25;2.05;;;;;;;;;;5132958;27;20027;-66
2021/03/17 04:56:26;;;;;;;2.55;2.35;;;;;;;;;;5131974;27;20412;-66
2021/03/17 04:58:53;;;;;;;2.03;1.83;;;;;;;;;;5131989;27;20046;-66
2021/03/17 05:01:20;;;;;;;2.50;2.30;;;;;;;;;;5131910;27;20054;-66
2021/03/17 05:03:46;;;;;;;3.08;2.00;;;;;;;;;;5132494;27;20561;-66
2021/03/17 05:06:13;;;;;;;2.03;1.92;;;;;;;;;;5131767;27;20034;-66
2021/03/17 05:08:41;;;;;;;2.83;2.30;;;;;;;;;;5132892;27;20034;-66
2021/03/17 05:11:08;;;;;;;1.95;1.80;;;;;;;;;;5131731;27;20477;-66
2021/03/17 05:13:35;;;;;;;2.13;2.03;;;;;;;;;;5132364;27;20031;-66
2021/03/17 05:16:03;;;;;;;2.45;2.20;;;;;;;;;;5131970;27;20031;-66
2021/03/17 05:18:30;;;;;;;3.03;2.72;;;;;;;;;;5132576;27;20029;-66
2021/03/17 05:20:57;;;;;;;1.98;1.83;;;;;;;;;;5132507;27;20029;-65
2021/03/17 05:23:23;;;;;;;1.70;1.60;;;;;;;;;;5131586;27;20069;-66
2021/03/17 05:25:49;;;;;;;2.15;2.05;;;;;;;;;;5132670;27;20039;-66
2021/03/17 05:28:17;;;;;;;2.97;2.45;;;;;;;;;;5131377;27;20084;-65
2021/03/17 05:30:44;;;;;;;3.28;2.53;;;;;;;;;;5132023;27;20032;-65
2021/03/17 05:33:11;;;;;;;2.97;2.45;;;;;;;;;;5131205;27;20023;-65
2021/03/17 05:35:37;;;;;;;3.00;2.70;;;;;;;;;;5131687;27;20045;-65
2021/03/17 05:38:04;;;;;;;2.55;2.00;;;;;;;;;;5131064;27;20080;-65
2021/03/17 05:40:30;;;;;;;2.83;1.90;;;;;;;;;;5131564;27;20031;-65
2021/03/17 05:42:59;;;;;;;3.95;2.75;;;;;;;;;;5132348;27;20019;-65
2021/03/17 05:45:25;;;;;;;2.35;2.17;;;;;;;;;;5131448;27;20043;-65
2021/03/17 05:47:51;;;;;;;4.07;2.70;;;;;;;;;;5131564;27;20031;-65
2021/03/17 05:50:19;;;;;;;2.97;2.78;;;;;;;;;;5131267;27;20896;-65
2021/03/17 05:52:45;;;;;;;3.70;2.63;;;;;;;;;;5131912;27;20058;-65
2021/03/17 05:55:13;;;;;;;3.95;3.03;;;;;;;;;;5130927;27;20042;-65
2021/03/17 05:57:40;;;;;;;2.97;2.40;;;;;;;;;;5130921;27;20035;-65
2021/03/17 06:00:07;;;;;;;2.90;2.70;;;;;;;;;;5130968;27;20034;-65
2021/03/17 06:02:33;;;;;;;3.45;2.75;;;;;;;;;;5131298;27;20027;-65
2021/03/17 06:05:00;;;;;;;4.25;3.58;;;;;;;;;;5130957;27;20034;-65
2021/03/17 06:07:27;;;;;;;3.42;2.45;;;;;;;;;;5131247;27;20046;-65
2021/03/17 06:09:56;;;;;;;2.10;1.95;;;;;;;;;;5131538;27;20084;-65
2021/03/17 06:12:23;;;;;;;2.47;2.28;;;;;;;;;;5130972;27;20431;-65
2021/03/17 06:14:51;;;;;;;3.28;3.00;;;;;;;;;;5130823;27;20031;-65
2021/03/17 06:17:23;;;;;;;3.13;2.80;;;;;;;;;;5130604;27;20027;-65
2021/03/17 06:19:51;;;;;;;2.80;2.60;;;;;;;;;;5130798;27;20412;-65
2021/03/17 06:22:18;;;;;;;2.30;2.10;;;;;;;;;;5130693;27;20023;-65
2021/03/17 06:24:44;;;;;;;3.13;2.83;;;;;;;;;;5131416;27;20439;-65
2021/03/17 06:27:12;;;;;;;3.17;2.88;;;;;;;;;;5130304;27;20042;-65
2021/03/17 06:29:39;;;;;;;3.38;3.08;;;;;;;;;;5130477;27;20027;-65
2021/03/17 06:32:05;;;;;;;4.10;3.70;;;;;;;;;;5130452;27;20042;-65
2021/03/17 06:34:31;;;;;;;3.45;2.55;;;;;;;;;;5130953;27;20028;-65
2021/03/17 06:36:57;;;;;;;4.85;3.10;;;;;;;;;;5130846;27;20107;-65
2021/03/17 06:39:23;;;;;;;3.45;3.20;;;;;;;;;;5130705;27;20034;-65
2021/03/17 06:41:49;;;;;;;3.17;2.65;;;;;;;;;;5130933;27;20049;-65
2021/03/17 06:44:34;;;;;;;4.05;3.75;;;;;;;;;;5130399;27;20478;-65
2021/03/17 06:47:19;;;;;;;3.03;2.75;;;;;;;;;;5130788;27;20050;-65
2021/03/17 06:49:50;;;;;;;3.50;3.20;;;;;;;;;;5126980;27;20183;-65
2021/03/17 06:52:45;;;;;;;2.95;2.75;;;;;;;;;;5120869;27;20027;-65
2021/03/17 06:55:19;;;;;;;2.85;2.60;;;;;;;;;;5103253;28;20043;-65
2021/03/17 06:57:45;;;;;;;;;;;;;;;;;;5129309;27;20039;-65
2021/03/17 07:00:17;;;;;;;3.60;3.30;;;;;;;;;;5129117;28;19904;-65
2021/03/17 07:02:50;;;;;;;4.07;3.22;;;;;;;;;;5129564;28;20031;-65
2021/03/17 07:05:16;;;;;;;2.90;2.63;;;;;;;;;;5122296;27;20035;-65
2021/03/17 07:07:46;;;;;;;4.03;2.83;;;;;;;;;;5127852;28;20031;-65
2021/03/17 07:10:12;;;;;;;3.88;2.47;;;;;;;;;;5124406;28;20256;-65
2021/03/17 07:12:38;;;;;;;4.80;2.95;;;;;;;;;;5129534;28;20019;-65
2021/03/17 07:15:10;;;;;;;2.72;2.47;;;;;;;;;;5131221;27;20027;-65
2021/03/17 07:17:36;;;;;;;4.32;3.22;;;;;;;;;;5129335;27;20072;-65
2021/03/17 07:20:05;;;;;;;3.80;2.45;;;;;;;;;;5132727;27;20437;-65
2021/03/17 07:22:32;;;;;;;3.55;3.08;;;;;;;;;;5133905;27;20043;-66
2021/03/17 07:25:02;;;;;;;3.30;3.05;;;;;;;;;;5132397;27;20117;-66
2021/03/17 07:27:29;;;;;;;5.45;4.00;;;;;;;;;;5128244;27;20330;-65
2021/03/17 07:29:58;;;;;;;2.78;2.58;;;;;;;;;;5130410;27;20079;-66
2021/03/17 07:32:25;;;;;;;3.53;2.95;;;;;;;;;;5123782;27;20027;-65
2021/03/17 07:34:51;;;;;;;3.65;3.35;;;;;;;;;;5130879;27;20031;-66
2021/03/17 07:37:17;;;;;;;4.38;3.97;;;;;;;;;;5130166;27;20208;-66
2021/03/17 07:39:43;;;;;;;12.45;4.68;;;;;;;;;;5131547;27;20448;-67
2021/03/17 07:42:13;;;;;;;7.38;3.88;;;;;;;;;;5127650;27;20104;-65
2021/03/17 07:44:41;;;;;;;5.50;4.70;;;;;;;;;;5124279;27;20130;-65
2021/03/17 07:47:08;;;;;;;4.70;3.80;;;;;;;;;;5110075;27;20031;-65
2021/03/17 07:49:35;;;;;;;4.95;3.92;;;;;;;;;;5116344;27;20055;-65
2021/03/17 07:52:02;;;;;;;10.75;3.67;;;;;;;;;;5127904;27;20106;-68
2021/03/17 07:54:32;;;;;;;4.57;4.15;;;;;;;;;;5109826;27;20071;-66
2021/03/17 07:57:00;;;;;;;6.68;3.72;;;;;;;;;;5106630;27;20550;-65
2021/03/17 07:59:26;;;;;;;4.95;4.38;;;;;;;;;;5103619;27;20051;-64
2021/03/17 08:01:54;;;;;;;4.45;4.15;;;;;;;;;;5099911;27;20036;-65
2021/03/17 08:04:22;;;;;;;6.60;6.00;;;;;;;;;;5097655;28;20051;-65
2021/03/17 08:06:49;;;;;;;10.35;5.93;;;;;;;;;;5087168;28;20537;-67
2021/03/17 08:09:15;;;;;;;5.20;4.63;;;;;;;;;;5084488;28;20075;-65
2021/03/17 08:11:42;;;;;;;6.55;5.90;;;;;;;;;;5098836;28;20028;-65
2021/03/17 08:14:09;;;;;;;7.25;5.35;;;;;;;;;;5099820;28;20053;-65
2021/03/17 08:16:36;;;;;;;6.78;4.65;;;;;;;;;;5099245;28;20058;-66
2021/03/17 08:19:18;;;;;;;7.55;5.63;;;;;;;;;;5097494;28;20039;-65
2021/03/17 08:22:04;;;;;;;6.82;5.13;;;;;;;;;;5100929;28;20077;-65
2021/03/17 08:24:35;;;;;;;5.22;4.38;;;;;;;;;;5100585;28;20031;-64
2021/03/17 08:27:07;;;;;;;5.90;5.38;;;;;;;;;;5097323;28;20032;-64
2021/03/17 08:29:36;;;;;;;4.75;4.35;;;;;;;;;;5100148;28;20030;-64
2021/03/17 08:32:03;;;;;;;9.02;5.53;;;;;;;;;;5099059;28;20023;-65
2021/03/17 08:34:29;;;;;;;5.90;5.32;;;;;;;;;;5098629;27;20028;-65
2021/03/17 08:36:55;;;;;;;4.68;4.35;;;;;;;;;;5100773;28;20063;-65
2021/03/17 08:39:34;;;;;;;4.68;4.38;;;;;;;;;;5100215;28;20032;-65
2021/03/17 08:42:04;;;;;;;5.13;3.85;;;;;;;;;;5098747;27;20038;-65
2021/03/17 08:44:31;;;;;;;5.90;4.85;;;;;;;;;;5101143;28;20048;-65
2021/03/17 08:47:16;;;;;;;3.83;3.42;;;;;;;;;;5100507;28;20024;-65
2021/03/17 08:49:43;;;;;;;7.60;4.95;;;;;;;;;;5094401;28;20020;-65
2021/03/17 08:52:10;;;;;;;4.13;3.83;;;;;;;;;;5098221;28;20115;-65
2021/03/17 08:54:46;;;;;;;4.35;4.05;;;;;;;;;;5099917;28;20036;-66
2021/03/17 08:57:14;;;;;;;7.57;4.35;;;;;;;;;;5098369;28;20036;-66
2021/03/17 08:59:40;;;;;;;4.55;4.15;;;;;;;;;;5132774;27;20111;-68
2021/03/17 09:02:16;;;;;;;5.85;5.13;;;;;;;;;;5133647;27;20033;-66
2021/03/17 09:04:49;;;;;;;8.10;4.55;;;;;;;;;;5131766;27;20034;-66
2021/03/17 09:07:16;;;;;;;18.23;5.28;;;;;;;;;;5137436;27;20043;-65
2021/03/17 09:09:49;;;;;;;3.85;3.55;;;;;;;;;;5138135;27;20058;-65
2021/03/17 09:12:16;;;;;;;5.35;3.75;;;;;;;;;;5131668;27;20027;-66
2021/03/17 09:14:42;;;;;;;5.82;3.67;;;;;;;;;;5126924;27;20023;-65
2021/03/17 09:17:10;;;;;;;5.03;3.70;;;;;;;;;;5130810;27;20362;-65
2021/03/17 09:19:56;;;;;;;3.65;3.35;;;;;;;;;;5137716;27;20041;-66
2021/03/17 09:22:32;;;;;;;7.10;3.63;;;;;;;;;;5137151;27;20039;-66
2021/03/17 09:24:58;;;;;;;5.97;3.97;;;;;;;;;;5127657;27;20087;-65
2021/03/17 09:27:24;;;;;;;6.40;3.70;;;;;;;;;;5127103;27;20039;-65
2021/03/17 09:29:50;;;;;;;4.63;4.22;;;;;;;;;;5128246;27;20031;-66
2021/03/17 09:32:17;;;;;;;5.45;3.72;;;;;;;;;;5134711;27;20501;-65
2021/03/17 09:34:44;;;;;;;3.25;3.00;;;;;;;;;;5137562;27;20123;-66
2021/03/17 09:37:12;;;;;;;5.05;3.97;;;;;;;;;;5135377;27;20473;-65
2021/03/17 09:39:39;;;;;;;3.72;3.00;;;;;;;;;;5124561;27;20068;-66
2021/03/17 09:42:06;;;;;;;6.18;4.15;;;;;;;;;;5132463;27;20122;-65
2021/03/17 09:44:32;;;;;;;5.93;3.28;;;;;;;;;;5124685;27;20042;-66
2021/03/17 09:46:58;;;;;;;3.40;3.13;;;;;;;;;;5130242;27;20023;-66
2021/03/17 09:49:25;;;;;;;5.43;3.10;;;;;;;;;;5138016;27;20035;-66
2021/03/17 09:51:51;;;;;;;5.45;4.78;;;;;;;;;;5127259;27;20406;-66
2021/03/17 09:54:22;;;;;;;3.53;3.22;;;;;;;;;;5126379;27;20545;-67
2021/03/17 09:56:55;;;;;;;5.32;3.42;;;;;;;;;;5129811;27;20027;-65
2021/03/17 09:59:32;;;;;;;3.67;2.90;;;;;;;;;;5134462;27;20502;-65
2021/03/17 10:02:05;;;;;;;5.90;3.70;;;;;;;;;;5134252;27;20064;-62
2021/03/17 10:04:31;;;;;;;4.20;3.28;;;;;;;;;;5127816;27;20042;-65
2021/03/17 10:06:57;;;;;;;2.95;2.75;;;;;;;;;;5125153;27;20089;-65
2021/03/17 10:09:30;;;;;;;2.78;2.58;;;;;;;;;;5133948;27;20110;-66
2021/03/17 10:12:01;;;;;;;3.92;2.67;;;;;;;;;;5131699;27;21391;-67
2021/03/17 10:14:27;;;;;;;2.72;2.47;;;;;;;;;;5127573;27;20394;-65
2021/03/17 10:16:54;;;;;;;3.90;2.42;;;;;;;;;;5126667;27;20077;-65
2021/03/17 10:19:20;;;;;;;3.58;2.72;;;;;;;;;;5128264;27;20038;-65
2021/03/17 10:21:48;;;;;;;2.70;2.42;;;;;;;;;;5136159;27;20039;-65
2021/03/17 10:24:14;;;;;;;4.22;3.00;;;;;;;;;;5136733;27;20190;-65
2021/03/17 10:26:40;;;;;;;2.10;2.00;;;;;;;;;;5138983;27;20022;-65
2021/03/17 10:29:07;;;;;;;2.92;2.38;;;;;;;;;;5136723;27;20115;-65
2021/03/17 10:31:34;;;;;;;4.40;2.17;;;;;;;;;;5123748;27;20030;-65
2021/03/17 10:34:00;;;;;;;2.35;2.15;;;;;;;;;;5123931;27;20035;-70
2021/03/17 10:36:27;;;;;;;3.00;2.70;;;;;;;;;;5131316;27;20036;-65
2021/03/17 10:38:53;;;;;;;2.55;2.35;;;;;;;;;;5136271;27;20030;-66
2021/03/17 10:41:38;;;;;;;3.90;2.60;;;;;;;;;;5126573;27;20035;-67
2021/03/17 10:44:15;;;;;;;4.47;2.28;;;;;;;;;;5124439;27;20431;-66
2021/03/17 10:46:59;;;;;;;1.70;1.60;;;;;;;;;;5124486;27;20030;-66
2021/03/17 10:49:25;;;;;;;2.20;2.00;;;;;;;;;;5125426;27;20058;-66
2021/03/17 10:51:52;;;;;;;4.03;1.77;;;;;;;;;;5134476;27;20059;-69
2021/03/17 10:54:37;;;;;;;3.53;1.88;;;;;;;;;;5126643;27;20026;-66
2021/03/17 10:57:04;;;;;;;2.25;1.42;;;;;;;;;;5127721;27;20075;-65
2021/03/17 10:59:48;;;;;;;5.47;1.67;;;;;;;;;;5120294;27;20091;-67
2021/03/17 11:02:28;;;;;;;2.33;2.13;;;;;;;;;;5101620;28;20426;-66
2021/03/17 11:05:03;;;;;;;2.17;2.00;;;;;;;;;;5104860;28;20106;-66
2021/03/17 11:07:46;;;;;;;2.00;1.90;;;;;;;;;;5105670;28;20506;-66
2021/03/17 11:10:32;;;;;;;4.07;2.00;;;;;;;;;;5114211;28;20486;-66
2021/03/17 11:13:01;;;;;;;5.00;2.15;;;;;;;;;;5088101;28;20035;-67
2021/03/17 11:15:31;;;;;;;1.48;1.25;;;;;;;;;;5104408;28;20035;-67
2021/03/17 11:17:59;;;;;;;2.78;1.00;;;;;;;;;;5114351;28;20035;-67
2021/03/17 11:20:26;;;;;;;1.63;1.45;;;;;;;;;;5115089;28;20050;-67
2021/03/17 11:22:53;;;;;;;5.20;1.60;;;;;;;;;;5115189;28;20043;-67
2021/03/17 11:25:25;;;;;;;1.85;1.55;;;;;;;;;;5105657;28;20876;-67
2021/03/17 11:27:52;;;;;;;1.60;1.38;;;;;;;;;;5106087;28;20484;-67
2021/03/17 11:30:18;;;;;;;1.48;1.30;;;;;;;;;;5104290;28;20072;-66
2021/03/17 11:32:45;;;;;;;1.10;0.70;;;;;;;;;;5106067;28;20024;-67
2021/03/17 11:35:11;;;;;;;2.55;1.40;;;;;;;;;;5111334;28;20557;-66
2021/03/17 11:37:38;;;;;;;2.80;1.70;;;;;;;;;;5106299;28;20112;-67
2021/03/17 11:40:05;;;;;;;1.55;1.45;;;;;;;;;;5101017;28;20020;-66
2021/03/17 11:42:31;;;;;;;1.20;1.10;;;;;;;;;;5103378;28;20059;-67
2021/03/17 11:44:57;;;;;;;3.63;1.10;;;;;;;;;;5106373;28;20028;-66
2021/03/17 11:47:23;;;;;;;3.05;1.63;;;;;;;;;;5106739;28;20169;-66
2021/03/17 11:49:49;;;;;;;2.30;1.33;;;;;;;;;;5114477;28;20096;-66
2021/03/17 11:52:15;;;;;;;3.00;1.60;;;;;;;;;;5110079;28;20062;-66
2021/03/17 11:54:43;;;;;;;1.65;1.55;;;;;;;;;;5104895;28;20107;-66
2021/03/17 11:57:09;;;;;;;2.00;1.23;;;;;;;;;;5100190;28;20086;-66
2021/03/17 11:59:35;;;;;;;3.35;1.52;;;;;;;;;;5099120;28;20050;-66
2021/03/17 12:02:01;;;;;;;1.00;0.88;;;;;;;;;;5095990;28;20031;-66
2021/03/17 12:04:27;;;;;;;1.45;1.35;;;;;;;;;;5099875;28;20092;-66
2021/03/17 12:06:53;;;;;;;1.77;1.27;;;;;;;;;;5098385;28;20051;-66
2021/03/17 12:09:19;;;;;;;1.50;1.00;;;;;;;;;;5097161;27;20036;-66
2021/03/17 12:11:45;;;;;;;1.20;1.17;;;;;;;;;;5092511;27;20031;-66
2021/03/17 12:14:12;;;;;;;1.02;0.70;;;;;;;;;;5096050;28;20053;-67
2021/03/17 12:16:38;;;;;;;0.85;0.85;;;;;;;;;;5098303;28;20027;-67
2021/03/17 12:19:04;;;;;;;2.00;1.20;;;;;;;;;;5097421;28;20032;-67
2021/03/17 12:21:30;;;;;;;1.13;1.05;;;;;;;;;;5099163;28;20056;-66
2021/03/17 12:23:57;;;;;;;0.82;0.82;;;;;;;;;;5100398;28;20043;-66
2021/03/17 12:26:23;;;;;;;1.20;0.98;;;;;;;;;;5098997;28;20031;-67
2021/03/17 12:28:49;;;;;;;1.77;0.80;;;;;;;;;;5099236;28;20119;-66
2021/03/17 12:31:15;;;;;;;0.52;0.50;;;;;;;;;;5098514;28;20039;-67
2021/03/17 12:33:42;;;;;;;1.30;0.80;;;;;;;;;;5099519;28;20024;-67
2021/03/17 12:36:08;;;;;;;0.50;0.50;;;;;;;;;;5098891;28;20032;-66
2021/03/17 12:38:34;;;;;;;0.95;0.88;;;;;;;;;;5104485;27;20059;-67
2021/03/17 12:41:00;;;;;;;0.88;0.65;;;;;;;;;;5098110;28;20019;-67
2021/03/17 12:43:29;;;;;;;0.57;0.55;;;;;;;;;;5097990;28;20047;-67
2021/03/17 12:45:55;;;;;;;0.63;0.63;;;;;;;;;;5098251;28;20742;-67
2021/03/17 12:48:21;;;;;;;0.50;0.50;;;;;;;;;;5097041;28;20344;-68
2021/03/17 12:50:48;;;;;;;0.70;0.70;;;;;;;;;;5098534;28;21375;-67
2021/03/17 12:53:14;;;;;;;0.40;0.40;;;;;;;;;;5095810;28;20027;-67
2021/03/17 12:55:40;;;;;;;1.63;0.75;;;;;;;;;;5098672;28;20035;-67
2021/03/17 12:58:06;;;;;;;2.03;0.80;;;;;;;;;;5100282;28;20060;-67
2021/03/17 13:00:33;;;;;;;0.50;0.50;;;;;;;;;;5103071;28;20031;-67
2021/03/17 13:02:59;;;;;;;1.85;0.70;;;;;;;;;;5104302;27;20243;-67
2021/03/17 13:05:25;;;;;;;1.02;0.55;;;;;;;;;;5108760;28;20219;-67
2021/03/17 13:07:51;;;;;;;0.75;0.75;;;;;;;;;;5104871;28;20028;-67
2021/03/17 13:10:19;;;;;;;0.52;0.52;;;;;;;;;;5106115;27;20066;-67
2021/03/17 13:12:47;;;;;;;0.95;0.63;;;;;;;;;;5107123;28;20091;-67
2021/03/17 13:15:16;;;;;;;0.55;0.50;;;;;;;;;;5100272;27;20474;-66
2021/03/17 13:17:43;;;;;;;1.63;0.93;;;;;;;;;;5097083;28;20062;-67
2021/03/17 13:20:10;;;;;;;1.17;0.90;;;;;;;;;;5098189;28;20028;-67
2021/03/17 13:22:36;;;;;;;0.70;0.70;;;;;;;;;;5097293;28;20071;-67
2021/03/17 13:25:03;;;;;;;1.38;0.73;;;;;;;;;;5088091;28;20032;-67
2021/03/17 13:27:29;;;;;;;0.40;0.40;;;;;;;;;;5088804;28;20024;-67
2021/03/17 13:29:58;;;;;;;0.68;0.68;;;;;;;;;;5071273;28;20040;-67
2021/03/17 13:32:24;;;;;;;0.60;0.60;;;;;;;;;;5088797;28;20031;-67
2021/03/17 13:34:51;;;;;;;2.55;0.82;;;;;;;;;;5101080;28;20035;-67
2021/03/17 13:37:17;;;;;;;2.78;0.90;;;;;;;;;;5111175;27;20028;-67
2021/03/17 13:39:43;;;;;;;0.55;0.30;;;;;;;;;;5109673;28;20020;-67
2021/03/17 13:42:09;;;;;;;1.85;1.33;;;;;;;;;;5108753;28;20024;-67
2021/03/17 13:44:35;;;;;;;0.70;0.70;;;;;;;;;;5110637;27;20036;-67
2021/03/17 13:47:01;;;;;;;0.80;0.68;;;;;;;;;;5129798;27;20103;-67
2021/03/17 13:49:28;;;;;;;2.17;0.60;;;;;;;;;;5129745;27;20584;-68
2021/03/17 13:51:54;;;;;;;1.65;0.80;;;;;;;;;;5120420;27;20035;-67
2021/03/17 13:54:20;;;;;;;3.72;1.27;;;;;;;;;;5116742;27;20666;-67
2021/03/17 13:56:46;;;;;;;0.70;0.55;;;;;;;;;;5102228;28;20073;-67
2021/03/17 13:59:12;;;;;;;1.65;0.38;;;;;;;;;;5112812;27;20521;-67
2021/03/17 14:01:38;;;;;;;0.40;0.40;;;;;;;;;;5122957;27;20101;-67
2021/03/17 14:04:04;;;;;;;1.42;0.80;;;;;;;;;;5127379;27;20027;-66
2021/03/17 14:06:30;;;;;;;1.50;0.40;;;;;;;;;;5130369;27;20463;-67
2021/03/17 14:08:57;;;;;;;2.67;0.75;;;;;;;;;;5130101;27;20461;-68
2021/03/17 14:11:23;;;;;;;1.75;0.60;;;;;;;;;;5125613;27;20031;-66
2021/03/17 14:13:49;;;;;;;1.45;0.98;;;;;;;;;;5114491;27;20011;-67
2021/03/17 14:16:15;;;;;;;1.33;0.75;;;;;;;;;;5118327;27;20037;-67
2021/03/17 14:18:41;;;;;;;3.92;1.00;;;;;;;;;;5117872;27;20115;-67
2021/03/17 14:21:07;;;;;;;0.55;0.45;;;;;;;;;;5117511;27;20130;-67
2021/03/17 14:23:33;;;;;;;2.55;0.70;;;;;;;;;;5109020;27;20434;-67
2021/03/17 14:25:59;;;;;;;1.80;0.60;;;;;;;;;;5119576;27;20509;-66
2021/03/17 14:28:26;;;;;;;3.28;0.68;;;;;;;;;;5117759;27;20555;-67
2021/03/17 14:30:52;;;;;;;1.75;0.88;;;;;;;;;;5118894;27;20031;-67
2021/03/17 14:33:18;;;;;;;0.75;0.63;;;;;;;;;;5116865;27;20095;-66
2021/03/17 14:35:44;;;;;;;1.88;1.23;;;;;;;;;;5119899;27;20386;-67
2021/03/17 14:38:10;;;;;;;0.68;0.68;;;;;;;;;;5117537;27;20026;-67
2021/03/17 14:40:37;;;;;;;0.68;0.57;;;;;;;;;;5117102;27;20046;-68
2021/03/17 14:43:03;;;;;;;1.10;0.57;;;;;;;;;;5119216;27;20043;-67
2021/03/17 14:45:29;;;;;;;0.50;0.40;;;;;;;;;;5119204;27;20035;-67
2021/03/17 14:47:55;;;;;;;3.00;0.60;;;;;;;;;;5117183;27;20031;-68